Time;durP1;ratioP1;P1;durP2;ratioP2;P2;SDS_P1;SDS_P2;PMS_P1;PMS_P2;Temp;Humidity;BMP_temperature;BMP_pressure;BME280_temperature;BME280_humidity;BME280_pressure;Samples;Min_cycle;Max_cycle;Signal;HPM_P1;HPM_P2
2021/05/11 00:01:16;;;;;;;1.73;1.50;;;;;;;14.40;67.63;94649.47;5056390;28;20354;-70
2021/05/11 00:03:43;;;;;;;2.25;1.40;;;;;;;14.35;67.32;94651.19;5041675;28;20045;-70
2021/05/11 00:06:10;;;;;;;2.97;1.55;;;;;;;14.32;67.47;94653.69;5060930;28;20041;-70
2021/05/11 00:08:37;;;;;;;1.63;1.50;;;;;;;14.24;67.80;94663.19;5056265;28;21801;-70
2021/05/11 00:11:03;;;;;;;3.47;1.60;;;;;;;14.23;67.49;94661.63;5054007;28;20044;-70
2021/05/11 00:13:28;;;;;;;3.05;1.67;;;;;;;14.10;68.61;94663.34;5048243;28;20041;-70
2021/05/11 00:15:54;;;;;;;2.63;1.45;;;;;;;14.16;67.79;94671.91;5051091;28;20493;-70
2021/05/11 00:18:19;;;;;;;2.25;1.48;;;;;;;14.11;68.06;94669.44;5035057;28;20037;-70
2021/05/11 00:20:45;;;;;;;2.03;1.40;;;;;;;14.12;67.48;94663.03;5065813;28;20044;-70
2021/05/11 00:23:10;;;;;;;4.72;1.80;;;;;;;14.03;68.25;94653.22;5049840;28;20045;-70
2021/05/11 00:25:36;;;;;;;1.65;1.40;;;;;;;13.93;68.36;94650.91;5051150;28;20049;-70
2021/05/11 00:28:02;;;;;;;2.72;1.70;;;;;;;14.00;68.20;94653.84;5043325;28;20049;-70
2021/05/11 00:30:28;;;;;;;2.03;1.60;;;;;;;13.91;68.82;94650.44;5045369;28;20049;-70
2021/05/11 00:32:54;;;;;;;3.55;1.50;;;;;;;13.89;68.76;94651.84;5041744;28;20041;-70
2021/05/11 00:35:19;;;;;;;1.90;1.55;;;;;;;13.88;68.93;94661.66;5047645;28;20055;-69
2021/05/11 00:37:45;;;;;;;1.95;1.50;;;;;;;13.78;69.32;94651.38;5032943;28;20049;-70
2021/05/11 00:40:12;;;;;;;2.28;1.60;;;;;;;13.72;69.05;94650.75;5039008;28;20041;-70
2021/05/11 00:42:37;;;;;;;3.03;1.45;;;;;;;13.67;69.38;94646.38;5047622;28;20108;-70
2021/05/11 00:45:05;;;;;;;1.55;1.35;;;;;;;13.61;69.60;94647.63;5050842;28;20112;-70
2021/05/11 00:47:30;;;;;;;2.55;1.30;;;;;;;13.60;69.25;94661.91;5047137;28;20391;-70
2021/05/11 00:49:56;;;;;;;2.28;1.38;;;;;;;13.54;69.60;94665.81;5045900;28;20045;-70
2021/05/11 00:52:22;;;;;;;1.73;1.40;;;;;;;13.61;69.10;94663.47;5049015;28;20166;-70
2021/05/11 00:54:48;;;;;;;3.05;1.30;;;;;;;13.55;69.37;94656.78;5047858;28;20056;-70
2021/05/11 00:57:15;;;;;;;1.27;1.17;;;;;;;13.57;68.90;94659.88;5046057;28;20041;-70
2021/05/11 00:59:40;;;;;;;1.10;1.00;;;;;;;13.50;69.21;94662.22;5054886;28;20051;-70
2021/05/11 01:02:09;;;;;;;1.30;1.20;;;;;;;13.44;69.81;94647.59;5050604;28;20139;-70
2021/05/11 01:04:36;;;;;;;2.15;1.30;;;;;;;13.40;69.91;94651.94;5044388;28;20111;-70
2021/05/11 01:07:02;;;;;;;1.65;1.30;;;;;;;13.34;69.71;94654.72;5050262;28;20041;-70
2021/05/11 01:09:28;;;;;;;2.50;1.40;;;;;;;13.27;69.87;94651.72;5050168;28;20515;-70
2021/05/11 01:11:55;;;;;;;1.67;1.17;;;;;;;13.34;69.90;94654.72;5051834;28;20039;-70
2021/05/11 01:14:22;;;;;;;1.52;1.40;;;;;;;13.25;69.91;94651.25;5059316;28;20514;-69
2021/05/11 01:16:53;;;;;;;1.77;1.15;;;;;;;13.27;69.94;94648.28;5047469;28;20056;-70
2021/05/11 01:20:05;;;;;;;1.85;1.38;;;;;;;13.22;70.42;94636.00;5035896;28;20585;-70
2021/05/11 01:24:45;;;;;;;1.55;1.30;;;;;;;13.15;70.28;94619.84;5048728;28;20048;-70
2021/05/11 01:33:14;;;;;;;1.73;1.35;;;;;;;12.92;70.91;94601.44;5054964;28;20037;-70
2021/05/11 02:22:34;;;;;;;1.35;1.25;;;;;;;12.28;73.01;94597.28;5042321;28;20052;-70
2021/05/11 02:23:29;;;;;;;2.50;1.05;;;;;;;12.07;73.72;94588.31;5034343;28;20049;-70
2021/05/11 02:25:58;;;;;;;2.20;1.30;;;;;;;12.17;73.62;94592.53;5037889;28;20037;-70
2021/05/11 02:28:25;;;;;;;1.25;1.15;;;;;;;12.09;73.84;94591.41;5047322;28;20526;-70
2021/05/11 02:30:51;;;;;;;1.30;1.20;;;;;;;12.13;74.08;94592.38;5042974;28;20041;-70
2021/05/11 02:33:17;;;;;;;2.53;1.30;;;;;;;12.02;74.46;94585.78;5050422;28;20498;-69
2021/05/11 02:35:43;;;;;;;2.45;1.17;;;;;;;11.94;74.51;94585.44;5066975;28;20048;-70
2021/05/11 02:38:09;;;;;;;2.60;2.15;;;;;;;11.97;74.24;94586.69;5047477;28;20506;-70
2021/05/11 02:40:34;;;;;;;2.90;1.23;;;;;;;11.94;74.21;94590.69;5047827;28;20041;-70
2021/05/11 02:43:13;;;;;;;1.58;1.40;;;;;;;11.82;75.29;94577.25;5049503;28;20047;-69
2021/05/11 02:45:39;;;;;;;1.38;1.20;;;;;;;11.78;75.08;94597.41;5061653;28;20052;-70
2021/05/11 02:48:05;;;;;;;1.20;1.10;;;;;;;11.72;75.05;94603.84;5050956;28;20496;-70
2021/05/11 02:50:31;;;;;;;2.22;1.10;;;;;;;11.74;75.24;94617.50;5041121;28;20585;-70
2021/05/11 02:52:57;;;;;;;1.38;1.27;;;;;;;11.69;75.57;94617.63;5049148;28;20068;-70
2021/05/11 02:55:23;;;;;;;2.88;1.20;;;;;;;11.68;75.77;94602.88;5040763;28;20080;-70
2021/05/11 02:57:51;;;;;;;1.45;1.35;;;;;;;11.60;75.75;94586.69;5044818;28;20148;-70
2021/05/11 03:00:19;;;;;;;1.58;1.33;;;;;;;11.57;75.55;94584.66;5037731;28;20048;-70
2021/05/11 03:02:45;;;;;;;1.30;1.15;;;;;;;11.58;76.02;94588.09;5049282;28;20033;-70
2021/05/11 03:05:11;;;;;;;1.67;1.20;;;;;;;11.53;76.10;94586.31;5049698;28;20064;-70
2021/05/11 03:07:37;;;;;;;1.85;1.40;;;;;;;11.59;75.75;94590.44;5046937;28;20341;-70
2021/05/11 03:10:04;;;;;;;2.42;1.20;;;;;;;11.56;75.82;94569.91;5041704;28;20045;-70
2021/05/11 03:12:30;;;;;;;1.40;1.30;;;;;;;11.60;75.84;94565.63;5045900;28;20041;-70
2021/05/11 03:14:56;;;;;;;1.13;1.10;;;;;;;11.51;76.25;94554.25;5045564;28;20149;-70
2021/05/11 03:17:22;;;;;;;1.40;1.30;;;;;;;11.44;76.44;94553.88;5059845;28;20038;-69
2021/05/11 03:19:47;;;;;;;1.90;1.38;;;;;;;11.40;76.96;94571.34;5046458;28;20411;-70
2021/05/11 03:22:13;;;;;;;2.13;1.30;;;;;;;11.37;76.98;94582.47;5047793;28;20056;-70
2021/05/11 03:24:43;;;;;;;1.50;1.40;;;;;;;11.39;76.89;94580.31;5050017;28;20482;-70
2021/05/11 03:27:10;;;;;;;1.30;1.20;;;;;;;11.32;76.40;94590.47;5062706;28;20421;-70
2021/05/11 03:29:35;;;;;;;1.83;1.30;;;;;;;11.32;77.13;94606.28;5037826;28;20103;-70
2021/05/11 03:32:01;;;;;;;1.65;1.20;;;;;;;11.35;76.76;94606.50;5040503;28;20049;-70
2021/05/11 03:34:26;;;;;;;3.47;1.15;;;;;;;11.35;76.94;94616.22;5046144;28;20037;-69
2021/05/11 03:36:52;;;;;;;2.25;1.55;;;;;;;11.33;76.61;94613.13;5040984;28;20037;-70
2021/05/11 03:39:17;;;;;;;4.28;1.30;;;;;;;11.29;77.01;94617.41;5032814;28;20045;-70
2021/05/11 03:41:50;;;;;;;1.58;1.05;;;;;;;11.24;76.82;94621.72;5042760;28;20045;-70
2021/05/11 03:44:19;;;;;;;3.50;1.30;;;;;;;11.20;77.40;94628.63;5040806;28;20045;-70
2021/05/11 03:46:45;;;;;;;2.28;1.30;;;;;;;11.31;77.18;94623.19;5043566;28;20043;-70
2021/05/11 03:49:11;;;;;;;4.30;1.20;;;;;;;11.32;76.95;94619.44;5035169;28;20041;-70
2021/05/11 03:51:37;;;;;;;1.30;1.20;;;;;;;11.11;77.84;94611.97;5041017;28;20037;-70
2021/05/11 03:54:05;;;;;;;2.72;1.20;;;;;;;11.17;77.73;94602.91;5051594;28;20049;-70
2021/05/11 03:56:31;;;;;;;2.78;1.35;;;;;;;11.11;77.70;94616.47;5041177;28;20037;-70
2021/05/11 03:58:57;;;;;;;2.33;1.50;;;;;;;11.13;77.68;94604.56;5063290;28;20120;-69
2021/05/11 04:01:23;;;;;;;2.60;1.40;;;;;;;11.06;78.09;94598.91;5038985;28;20045;-69
2021/05/11 04:03:48;;;;;;;1.52;1.20;;;;;;;10.96;78.37;94583.31;5050940;28;20048;-70
2021/05/11 04:06:14;;;;;;;1.80;1.40;;;;;;;10.88;78.54;94588.19;5035760;28;20466;-69
2021/05/11 04:08:59;;;;;;;2.00;1.40;;;;;;;10.91;78.52;94592.88;5039453;28;20045;-69
2021/05/11 04:16:23;;;;;;;1.90;1.50;;;;;;;10.80;79.36;94586.25;5032478;28;20483;-70
2021/05/11 04:18:49;;;;;;;3.17;1.38;;;;;;;10.77;79.15;94594.72;5031987;28;20056;-70
2021/05/11 04:21:16;;;;;;;3.28;1.70;;;;;;;10.66;79.67;94595.97;5036667;28;20525;-70
2021/05/11 04:23:43;;;;;;;2.33;1.50;;;;;;;10.63;79.58;94593.94;5047834;28;20033;-70
2021/05/11 04:26:10;;;;;;;2.22;1.40;;;;;;;10.58;79.91;94585.06;5041803;28;20041;-70
2021/05/11 04:28:36;;;;;;;1.80;1.20;;;;;;;10.58;79.84;94579.81;5043433;28;20032;-70
2021/05/11 04:31:01;;;;;;;2.78;1.60;;;;;;;10.62;79.68;94574.00;5065053;28;20039;-70
2021/05/11 04:33:27;;;;;;;2.15;1.20;;;;;;;10.60;79.75;94573.47;5046094;28;20502;-70
2021/05/11 04:35:53;;;;;;;2.42;1.52;;;;;;;10.50;80.32;94562.09;5046247;28;20052;-70
2021/05/11 04:38:19;;;;;;;2.75;1.50;;;;;;;10.51;80.18;94563.63;5043897;28;20054;-69
2021/05/11 04:40:45;;;;;;;2.28;1.50;;;;;;;10.52;80.23;94559.94;5053210;28;20037;-69
2021/05/11 04:43:11;;;;;;;1.95;1.38;;;;;;;10.58;79.77;94564.03;5031519;28;20053;-70
2021/05/11 04:45:36;;;;;;;2.60;1.42;;;;;;;10.49;80.28;94576.31;5044474;28;20033;-70
2021/05/11 04:48:02;;;;;;;3.28;1.60;;;;;;;10.49;80.36;94597.34;5047537;28;20073;-70
2021/05/11 04:50:28;;;;;;;2.30;1.45;;;;;;;10.46;80.47;94587.41;5042921;28;20099;-69
2021/05/11 04:52:56;;;;;;;2.28;1.50;;;;;;;10.65;79.63;94573.41;5047647;28;20040;-69
2021/05/11 04:55:22;;;;;;;3.70;1.75;;;;;;;10.55;79.92;94559.34;5050445;28;20036;-69
2021/05/11 04:57:48;;;;;;;2.25;1.50;;;;;;;10.55;79.92;94559.34;5033186;28;20487;-69
2021/05/11 05:00:15;;;;;;;1.60;1.50;;;;;;;10.62;80.14;94560.84;5063114;28;20036;-70
2021/05/11 05:02:43;;;;;;;2.90;1.50;;;;;;;10.68;80.05;94562.28;5038973;28;20410;-69
2021/05/11 05:05:09;;;;;;;2.28;1.40;;;;;;;10.85;79.46;94567.72;5030917;28;20263;-70
2021/05/11 05:07:36;;;;;;;2.28;1.40;;;;;;;10.83;79.87;94575.16;5042316;28;20037;-70
2021/05/11 05:10:03;;;;;;;4.72;1.40;;;;;;;11.02;79.06;94588.19;5038070;28;20809;-69
2021/05/11 05:12:29;;;;;;;1.95;1.60;;;;;;;11.14;78.36;94587.69;5043069;28;20069;-69
2021/05/11 05:14:55;;;;;;;1.60;1.45;;;;;;;11.27;78.15;94594.78;5047679;28;20090;-69
2021/05/11 05:17:20;;;;;;;3.28;1.42;;;;;;;11.36;77.50;94596.72;5043678;28;20037;-69
2021/05/11 05:19:46;;;;;;;2.30;1.42;;;;;;;11.45;77.22;94594.97;5045456;28;20414;-69
2021/05/11 05:22:11;;;;;;;3.33;1.50;;;;;;;11.53;76.64;94586.31;5050588;28;20053;-69
2021/05/11 05:24:42;;;;;;;2.05;1.27;;;;;;;11.63;76.04;94580.06;5031151;28;20041;-69
2021/05/11 05:29:42;;;;;;;1.70;1.50;;;;;;;11.88;75.14;94596.34;5050163;28;20080;-70
2021/05/11 05:32:08;;;;;;;1.48;1.30;;;;;;;12.09;74.16;94580.88;5052992;28;20236;-70
2021/05/11 05:34:34;;;;;;;2.28;1.65;;;;;;;12.14;74.41;94583.41;5042348;28;20052;-69
2021/05/11 05:37:00;;;;;;;1.50;1.40;;;;;;;12.20;73.93;94576.13;5035138;28;20060;-69
2021/05/11 05:39:32;;;;;;;3.80;1.50;;;;;;;12.41;73.51;94571.09;5051705;28;20033;-69
2021/05/11 05:41:58;;;;;;;1.85;1.40;;;;;;;12.57;72.57;94564.34;5062101;28;20042;-69
2021/05/11 05:44:23;;;;;;;5.63;1.50;;;;;;;12.58;72.60;94565.91;5045937;28;20503;-69
2021/05/11 05:46:49;;;;;;;6.97;1.95;;;;;;;12.60;73.03;94573.53;5035806;28;20046;-69
2021/05/11 05:49:14;;;;;;;3.25;1.60;;;;;;;12.71;72.33;94576.66;5054043;28;20294;-69
2021/05/11 05:51:40;;;;;;;3.10;1.60;;;;;;;12.86;71.33;94589.47;5048931;28;20045;-69
2021/05/11 05:54:06;;;;;;;1.92;1.60;;;;;;;12.87;71.39;94593.63;5045217;28;20100;-69
2021/05/11 05:56:31;;;;;;;2.15;1.50;;;;;;;12.85;71.58;94601.09;5034152;28;20042;-70
2021/05/11 05:58:58;;;;;;;4.85;1.55;;;;;;;12.99;70.98;94611.56;5037865;28;20052;-70
2021/05/11 06:01:28;;;;;;;1.55;1.40;;;;;;;13.03;70.97;94611.72;5052878;28;20049;-69
2021/05/11 06:04:03;;;;;;;3.67;1.63;;;;;;;13.11;70.81;94603.03;5045893;28;20103;-69
2021/05/11 06:06:29;;;;;;;4.40;1.60;;;;;;;13.10;71.19;94617.31;5040588;28;20114;-69
2021/05/11 06:08:57;;;;;;;3.60;1.58;;;;;;;13.17;70.43;94617.66;5050706;28;20498;-69
2021/05/11 06:14:08;;;;;;;2.38;1.70;;;;;;;13.36;69.31;94624.56;5050103;28;20036;-69
2021/05/11 06:19:20;;;;;;;3.72;1.73;;;;;;;13.47;69.36;94604.69;5034073;28;20068;-69
2021/05/11 06:21:45;;;;;;;3.97;1.70;;;;;;;13.47;69.55;94602.03;5045631;28;20502;-70
2021/05/11 06:24:11;;;;;;;3.45;1.60;;;;;;;13.41;69.11;94600.66;5046164;28;20060;-70
2021/05/11 06:26:36;;;;;;;3.38;1.90;;;;;;;13.25;70.23;94593.13;5052750;28;20515;-70
2021/05/11 06:29:03;;;;;;;4.65;1.75;;;;;;;13.41;69.53;94595.34;5054385;28;20461;-70
2021/05/11 06:31:29;;;;;;;3.03;1.63;;;;;;;13.33;69.88;94589.72;5050160;28;20127;-70
2021/05/11 06:33:55;;;;;;;3.08;2.28;;;;;;;13.36;69.91;94590.22;5050394;28;20413;-69
2021/05/11 06:36:20;;;;;;;2.42;1.60;;;;;;;13.39;69.97;94592.22;5058728;28;20053;-69
2021/05/11 06:38:46;;;;;;;2.53;1.63;;;;;;;13.44;70.03;94584.16;5049907;28;20037;-69
2021/05/11 06:41:12;;;;;;;1.95;1.50;;;;;;;13.70;68.95;94581.53;5041270;28;20041;-70
2021/05/11 06:43:40;;;;;;;2.22;1.70;;;;;;;13.77;69.34;94581.06;5051804;28;20048;-70
2021/05/11 06:49:10;;;;;;;1.90;1.65;;;;;;;13.84;68.42;94582.13;5041474;28;20057;-70
2021/05/11 06:54:13;;;;;;;2.78;1.90;;;;;;;13.99;67.93;94585.38;5043058;28;20053;-70
2021/05/11 06:56:42;;;;;;;4.85;1.88;;;;;;;13.80;68.40;94575.16;5056456;28;20090;-70
2021/05/11 06:59:08;;;;;;;4.47;2.00;;;;;;;13.92;68.92;94564.72;5048348;28;20040;-70
2021/05/11 07:01:33;;;;;;;3.08;1.90;;;;;;;13.84;69.45;94576.09;5045760;28;20688;-70
2021/05/11 07:03:59;;;;;;;3.00;1.90;;;;;;;13.71;68.75;94577.03;5050000;28;20526;-70
2021/05/11 07:06:24;;;;;;;8.38;2.00;;;;;;;13.91;68.37;94559.75;5054126;28;20121;-70
2021/05/11 07:08:54;;;;;;;2.92;2.00;;;;;;;13.76;68.66;94542.47;5042803;28;20041;-70
2021/05/11 07:13:47;;;;;;;6.03;2.20;;;;;;;14.00;68.27;94547.28;5052694;28;20627;-70
2021/05/11 07:16:13;;;;;;;5.03;1.88;;;;;;;14.23;67.17;94539.91;5057566;28;20053;-69
2021/05/11 07:18:39;;;;;;;2.88;2.00;;;;;;;14.19;67.22;94523.09;5047318;28;20032;-73
2021/05/11 07:21:04;;;;;;;4.95;2.20;;;;;;;13.92;67.93;94525.06;5042090;28;20055;-70
2021/05/11 07:23:30;;;;;;;5.30;2.00;;;;;;;14.10;68.25;94530.31;5051868;28;20489;-70
2021/05/11 07:31:14;;;;;;;4.30;2.00;;;;;;;14.28;67.00;94484.19;5045371;28;20033;-70
2021/05/11 07:33:48;;;;;;;3.40;2.15;;;;;;;14.07;67.83;94472.72;5054116;28;20040;-70
2021/05/11 07:36:14;;;;;;;4.47;2.13;;;;;;;14.26;67.51;94470.47;5054594;28;20037;-70
2021/05/11 07:38:40;;;;;;;9.48;2.03;;;;;;;14.15;68.24;94469.25;5045772;28;20123;-70
2021/05/11 07:41:07;;;;;;;3.08;1.88;;;;;;;14.45;68.24;94469.31;5049194;28;20041;-70
2021/05/11 07:43:35;;;;;;;5.90;1.80;;;;;;;14.29;68.28;94461.88;5050130;28;20049;-69
2021/05/11 07:46:19;;;;;;;3.88;2.10;;;;;;;14.45;67.72;94467.44;5045918;28;20507;-70
2021/05/11 08:28:39;;;;;;;5.75;2.42;;;;;;;14.20;68.67;94458.50;5043468;28;20124;-70
2021/05/11 08:31:05;;;;;;;8.15;2.75;;;;;;;14.08;68.62;94458.41;5048708;28;20517;-71
2021/05/11 08:33:31;;;;;;;7.60;2.42;;;;;;;14.12;69.19;94464.63;5049089;28;20045;-70
2021/05/11 08:35:56;;;;;;;3.50;2.50;;;;;;;14.03;69.19;94446.13;5043368;28;20460;-71
2021/05/11 08:38:22;;;;;;;6.22;2.60;;;;;;;13.97;70.00;94453.47;5041630;28;20061;-70
2021/05/11 08:40:47;;;;;;;9.48;2.88;;;;;;;14.12;69.33;94461.97;5049996;28;20045;-70
2021/05/11 08:43:32;;;;;;;5.60;2.72;;;;;;;14.25;68.36;94468.94;5051171;28;20051;-70
2021/05/11 08:46:01;;;;;;;3.90;2.38;;;;;;;14.24;68.56;94477.97;5048397;28;20542;-70
2021/05/11 08:48:27;;;;;;;6.47;2.35;;;;;;;14.26;68.39;94489.00;5056729;28;20113;-70
2021/05/11 09:32:19;;;;;;;7.10;3.03;;;;;;;15.32;65.49;94497.94;5042635;28;20059;-69
2021/05/11 09:51:32;;;;;;;4.40;2.40;;;;;;;15.33;65.59;94478.28;5043264;28;20048;-70
2021/05/11 09:56:47;;;;;;;5.95;2.67;;;;;;;15.41;65.12;94461.53;5048545;28;20060;-70
2021/05/11 10:49:28;;;;;;;7.53;2.53;;;;;;;15.89;63.70;94429.44;5032431;28;20116;-69
2021/05/11 10:55:21;;;;;;;7.07;2.95;;;;;;;16.11;62.55;94436.97;5041805;28;20444;-71
2021/05/11 10:57:58;;;;;;;5.78;2.60;;;;;;;16.21;62.42;94440.31;5045141;28;20483;-70
2021/05/11 11:03:18;;;;;;;6.43;2.67;;;;;;;16.41;62.41;94428.78;5059403;28;20036;-70
2021/05/11 11:05:55;;;;;;;7.53;2.78;;;;;;;16.50;62.70;94418.06;5050784;28;20041;-70
2021/05/11 11:08:44;;;;;;;5.57;2.78;;;;;;;16.83;61.97;94427.75;5046576;28;20057;-71
2021/05/11 11:11:20;;;;;;;5.68;2.72;;;;;;;16.53;61.54;94429.88;5055198;28;20095;-70
2021/05/11 11:13:49;;;;;;;5.45;2.70;;;;;;;16.47;61.17;94421.38;5045938;28;20038;-70
2021/05/11 11:16:16;;;;;;;5.82;2.50;;;;;;;16.54;60.33;94418.16;5051148;28;20513;-71
2021/05/11 11:18:42;;;;;;;9.77;2.83;;;;;;;16.68;60.52;94415.94;5048190;28;20392;-71
2021/05/11 11:23:54;;;;;;;7.75;2.75;;;;;;;16.82;61.18;94393.53;5047542;28;20051;-71
2021/05/11 11:26:31;;;;;;;8.27;2.75;;;;;;;17.00;60.27;94389.53;5038671;28;20049;-71
2021/05/11 11:29:07;;;;;;;8.40;3.00;;;;;;;17.08;59.76;94388.63;5049138;28;20518;-70
2021/05/11 11:31:36;;;;;;;3.60;2.42;;;;;;;17.28;57.81;94383.44;5032781;28;20033;-70
2021/05/11 11:34:19;;;;;;;3.63;2.42;;;;;;;17.19;58.83;94385.47;5051725;28;20037;-71
2021/05/11 11:36:58;;;;;;;7.55;2.60;;;;;;;17.48;57.52;94382.47;5051400;28;20029;-70
2021/05/11 11:39:25;;;;;;;7.22;3.08;;;;;;;17.61;57.92;94385.06;5044779;28;20045;-70
2021/05/11 11:41:54;;;;;;;7.20;2.58;;;;;;;17.59;56.45;94379.31;5052709;28;20131;-70
2021/05/11 11:44:22;;;;;;;4.95;2.50;;;;;;;17.70;57.18;94377.69;5059992;28;20045;-71
2021/05/11 11:46:57;;;;;;;5.10;2.50;;;;;;;17.32;57.70;94357.72;5061336;28;20453;-70
2021/05/11 11:49:25;;;;;;;4.93;3.00;;;;;;;17.48;58.27;94339.91;5032178;28;20064;-71
2021/05/11 11:52:08;;;;;;;6.65;3.00;;;;;;;17.32;57.73;94331.13;5037225;28;20103;-71
2021/05/11 11:54:39;;;;;;;7.32;3.05;;;;;;;16.87;59.21;94326.91;5049983;28;20037;-71
2021/05/11 12:00:06;;;;;;;12.27;4.43;;;;;;;17.12;59.81;94392.16;5042049;28;20112;-70
2021/05/11 12:02:32;;;;;;;6.53;3.00;;;;;;;17.33;57.69;94407.13;5044043;28;20029;-71
2021/05/11 12:05:16;;;;;;;6.63;2.80;;;;;;;17.42;57.80;94415.72;5042745;28;20033;-70
2021/05/11 12:08:00;;;;;;;7.28;2.60;;;;;;;17.41;56.79;94424.84;5047640;28;20037;-70
2021/05/11 12:10:26;;;;;;;5.53;2.67;;;;;;;17.35;58.60;94439.47;5045291;28;20040;-70
2021/05/11 12:12:53;;;;;;;9.38;2.97;;;;;;;17.40;56.73;94449.13;5045962;28;20051;-71
2021/05/11 12:15:20;;;;;;;7.22;2.80;;;;;;;17.76;55.78;94445.50;5045901;28;20072;-71
2021/05/11 12:18:02;;;;;;;4.07;2.50;;;;;;;18.80;53.75;94452.53;5065305;28;20462;-71
2021/05/11 12:20:28;;;;;;;3.63;2.53;;;;;;;19.08;53.40;94451.66;5048230;28;20052;-71
2021/05/11 12:23:09;;;;;;;5.75;2.50;;;;;;;19.72;50.54;94457.47;5071501;28;20044;-70
2021/05/11 12:25:36;;;;;;;6.07;2.72;;;;;;;20.23;48.82;94456.47;5051421;28;20491;-71
2021/05/11 12:28:02;;;;;;;7.85;2.90;;;;;;;19.81;50.31;94443.94;5077545;28;20476;-71
2021/05/11 12:30:47;;;;;;;7.28;2.80;;;;;;;20.59;49.27;94440.97;5046932;28;20041;-71
2021/05/11 12:33:13;;;;;;;5.25;3.05;;;;;;;21.28;47.65;94444.59;5037073;28;20449;-70
2021/05/11 12:35:41;;;;;;;6.75;3.55;;;;;;;20.20;50.18;94433.13;5046290;28;20099;-71
2021/05/11 12:38:25;;;;;;;5.85;3.00;;;;;;;20.00;50.67;94429.00;5040334;28;20100;-71
2021/05/11 12:41:09;;;;;;;9.18;2.90;;;;;;;20.45;50.49;94438.09;5060250;28;20044;-71
2021/05/11 12:43:39;;;;;;;5.57;2.85;;;;;;;19.86;51.68;94446.28;5065816;28;20486;-70
2021/05/11 12:46:24;;;;;;;4.88;3.25;;;;;;;19.78;51.23;94447.25;5049384;28;20037;-71
2021/05/11 12:49:02;;;;;;;6.60;2.80;;;;;;;19.66;51.58;94442.84;5049038;28;20037;-70
2021/05/11 12:51:32;;;;;;;4.28;3.13;;;;;;;19.39;52.94;94444.63;5051146;28;20040;-71
2021/05/11 12:54:01;;;;;;;9.23;3.22;;;;;;;19.41;52.65;94441.59;5046009;28;20098;-70
2021/05/11 12:56:47;;;;;;;7.28;3.53;;;;;;;19.24;53.83;94438.25;5038638;28;20110;-71
2021/05/11 12:59:49;;;;;;;7.28;3.40;;;;;;;19.36;53.83;94443.44;5069463;28;20041;-71
2021/05/11 13:16:31;;;;;;;5.00;3.40;;;;;;;19.59;52.47;94452.63;5041077;28;20060;-70
2021/05/11 13:22:30;;;;;;;4.82;3.60;;;;;;;19.10;53.86;94456.63;5044596;28;20526;-70
2021/05/11 13:35:06;;;;;;;6.60;3.63;;;;;;;18.46;56.79;94449.50;5032611;28;20068;-70
2021/05/11 13:37:31;;;;;;;9.23;3.35;;;;;;;18.16;58.37;94441.97;5046718;28;20039;-71
2021/05/11 13:39:58;;;;;;;7.35;3.80;;;;;;;18.11;57.86;94444.88;5048852;28;20049;-71
2021/05/11 13:42:25;;;;;;;7.25;3.78;;;;;;;18.16;58.24;94449.94;5049925;28;20323;-70
2021/05/11 13:44:53;;;;;;;4.07;3.33;;;;;;;18.23;57.45;94446.69;5048722;28;20474;-71
2021/05/11 13:47:19;;;;;;;4.95;3.17;;;;;;;18.11;57.66;94457.41;5048427;28;20080;-71
2021/05/11 13:49:48;;;;;;;5.15;3.50;;;;;;;18.04;57.92;94475.88;5049392;28;20045;-70
2021/05/11 13:52:14;;;;;;;7.47;3.20;;;;;;;18.00;59.05;94486.41;5049769;28;20037;-70
2021/05/11 13:54:39;;;;;;;5.15;3.40;;;;;;;17.99;59.12;94495.53;5049067;28;20052;-71
2021/05/11 13:57:19;;;;;;;5.22;3.38;;;;;;;17.94;59.32;94498.44;5043646;28;20045;-70
2021/05/11 14:02:41;;;;;;;6.38;3.78;;;;;;;17.68;60.00;94494.31;5043166;28;20040;-70
2021/05/11 14:05:08;;;;;;;8.40;4.13;;;;;;;17.84;59.64;94505.78;5050242;28;20041;-70
2021/05/11 14:07:34;;;;;;;5.07;3.92;;;;;;;17.74;59.86;94500.97;5049664;28;20047;-70
2021/05/11 14:09:59;;;;;;;6.70;3.70;;;;;;;18.07;58.70;94510.56;5060104;28;20479;-70
2021/05/11 14:12:25;;;;;;;5.47;4.30;;;;;;;18.14;57.96;94512.63;5052735;28;20053;-70
2021/05/11 14:14:51;;;;;;;5.82;4.20;;;;;;;18.41;56.60;94513.69;5050609;28;20060;-70
2021/05/11 14:17:17;;;;;;;6.60;4.50;;;;;;;18.14;57.61;94508.06;5049710;28;20037;-70
2021/05/11 14:19:43;;;;;;;7.00;4.10;;;;;;;18.69;56.48;94510.16;5048045;28;20046;-71
2021/05/11 14:22:09;;;;;;;7.78;4.40;;;;;;;18.78;56.21;94513.41;5053813;28;20643;-71
2021/05/11 14:24:34;;;;;;;10.23;5.07;;;;;;;19.43;54.38;94514.06;5044280;28;20052;-71
2021/05/11 14:27:01;;;;;;;6.75;4.18;;;;;;;19.28;55.00;94513.78;5046590;28;20050;-71
2021/05/11 14:29:26;;;;;;;5.68;4.60;;;;;;;19.11;55.30;94517.59;5043724;28;20472;-71
2021/05/11 14:31:52;;;;;;;9.30;4.57;;;;;;;19.26;54.33;94520.59;5037403;28;20045;-70
2021/05/11 14:34:19;;;;;;;5.18;4.30;;;;;;;19.06;55.05;94523.19;5042918;28;20045;-71
2021/05/11 14:36:45;;;;;;;8.00;4.60;;;;;;;19.16;55.20;94525.31;5037861;28;20046;-71
2021/05/11 14:39:10;;;;;;;8.60;4.00;;;;;;;19.00;55.75;94519.25;5038123;28;20465;-71
2021/05/11 14:41:36;;;;;;;5.70;4.40;;;;;;;18.73;56.90;94516.34;5055227;28;20114;-70
2021/05/11 14:44:04;;;;;;;6.32;4.00;;;;;;;18.61;57.24;94511.13;5049115;28;20512;-70
2021/05/11 14:46:29;;;;;;;5.30;4.25;;;;;;;18.40;57.80;94509.47;5059874;28;20052;-70
2021/05/11 14:48:55;;;;;;;8.55;4.20;;;;;;;18.35;58.40;94513.16;5048890;28;20671;-71
2021/05/11 14:51:21;;;;;;;6.72;3.92;;;;;;;18.04;59.42;94521.88;5060311;28;20037;-70
2021/05/11 14:53:48;;;;;;;4.80;3.83;;;;;;;17.77;60.57;94526.88;5044125;28;20098;-70
2021/05/11 14:56:14;;;;;;;6.72;3.90;;;;;;;17.58;61.27;94524.06;5048591;28;20478;-71
2021/05/11 14:58:39;;;;;;;7.18;4.13;;;;;;;17.56;61.04;94531.63;5059465;28;20045;-70
2021/05/11 15:01:05;;;;;;;7.10;3.88;;;;;;;17.40;62.00;94529.66;5050359;28;20041;-71
2021/05/11 15:03:31;;;;;;;5.57;3.88;;;;;;;17.48;61.61;94536.72;5049513;28;20502;-71
2021/05/11 15:05:57;;;;;;;9.30;3.40;;;;;;;17.58;60.99;94529.38;5051559;28;20049;-71
2021/05/11 15:08:22;;;;;;;7.97;3.53;;;;;;;17.46;60.65;94538.94;5038264;28;20426;-70
2021/05/11 15:10:49;;;;;;;4.28;3.33;;;;;;;17.56;60.70;94542.25;5046441;28;20041;-70
2021/05/11 15:13:15;;;;;;;4.97;3.47;;;;;;;17.56;60.09;94547.56;5052046;28;20093;-71
2021/05/11 15:15:44;;;;;;;5.72;3.40;;;;;;;17.36;61.08;94552.72;5052586;28;20037;-70
2021/05/11 15:18:10;;;;;;;4.75;3.53;;;;;;;17.46;60.63;94557.56;5043318;28;20060;-71
2021/05/11 15:20:36;;;;;;;6.10;3.45;;;;;;;17.64;61.06;94554.63;5047659;28;20487;-71
2021/05/11 15:23:03;;;;;;;4.20;3.08;;;;;;;17.84;60.26;94550.22;5043812;28;20040;-71
2021/05/11 15:25:29;;;;;;;5.90;3.58;;;;;;;17.82;59.78;94549.81;5038421;28;20052;-71
2021/05/11 15:27:55;;;;;;;4.68;3.30;;;;;;;17.71;60.18;94551.41;5053360;28;20056;-70
2021/05/11 15:30:23;;;;;;;5.20;4.00;;;;;;;17.61;59.79;94560.63;5047309;28;20033;-71
2021/05/11 15:32:58;;;;;;;16.20;4.80;;;;;;;17.70;59.65;94552.50;5054460;28;20048;-71
2021/05/11 15:35:30;;;;;;;6.50;4.20;;;;;;;17.79;59.03;94556.56;5044626;28;20128;-71
2021/05/11 15:37:59;;;;;;;6.07;4.50;;;;;;;17.52;60.34;94567.97;5034738;28;20049;-71
2021/05/11 15:40:27;;;;;;;9.07;4.80;;;;;;;17.27;61.00;94576.00;5053288;28;20041;-70
2021/05/11 15:42:55;;;;;;;7.93;4.55;;;;;;;17.13;61.47;94579.75;5050967;28;20045;-71
2021/05/11 15:45:22;;;;;;;5.93;4.90;;;;;;;16.89;62.40;94585.84;5043602;28;20037;-70
2021/05/11 15:47:53;;;;;;;6.57;4.80;;;;;;;16.96;62.19;94585.31;5050573;28;20064;-70
2021/05/11 15:50:20;;;;;;;6.75;4.68;;;;;;;17.04;62.47;94592.41;5046789;28;20117;-71
2021/05/11 15:52:46;;;;;;;6.15;5.18;;;;;;;16.83;62.34;94591.72;5040148;28;20495;-71
2021/05/11 15:55:12;;;;;;;5.95;5.30;;;;;;;16.60;63.11;94600.84;5044844;28;20049;-70
2021/05/11 15:57:38;;;;;;;6.25;5.00;;;;;;;16.47;63.53;94601.94;5039761;28;20395;-70
2021/05/11 16:00:04;;;;;;;8.07;5.18;;;;;;;16.64;63.38;94601.00;5037056;28;20043;-70
2021/05/11 16:02:29;;;;;;;6.03;4.75;;;;;;;16.70;62.76;94609.53;5042479;28;20053;-71
2021/05/11 16:04:55;;;;;;;5.72;5.10;;;;;;;16.74;62.25;94605.88;5033735;28;20049;-70
2021/05/11 16:07:21;;;;;;;6.03;5.40;;;;;;;16.66;62.26;94603.31;5047316;28;20172;-70
2021/05/11 16:09:46;;;;;;;5.95;4.78;;;;;;;16.60;62.41;94610.72;5049108;28;20036;-70
2021/05/11 16:12:12;;;;;;;5.90;5.10;;;;;;;16.68;61.77;94607.19;5048709;28;20048;-70